sensor_id;sensor_type;location;lat;lon;timestamp;temperature;humidity
13440;DHT22;6792;57.698;11.946;2023-08-06T00:00:13;22.40;49.80
13440;DHT22;6792;57.698;11.946;2023-08-06T00:02:42;22.40;49.80
13440;DHT22;6792;57.698;11.946;2023-08-06T00:05:15;22.40;49.80
13440;DHT22;6792;57.698;11.946;2023-08-06T00:07:46;22.30;49.80
13440;DHT22;6792;57.698;11.946;2023-08-06T00:10:15;22.30;49.90
13440;DHT22;6792;57.698;11.946;2023-08-06T00:12:45;22.30;49.80
13440;DHT22;6792;57.698;11.946;2023-08-06T00:15:14;22.30;49.80
13440;DHT22;6792;57.698;11.946;2023-08-06T00:17:43;22.30;49.80
13440;DHT22;6792;57.698;11.946;2023-08-06T00:20:13;22.20;49.80
13440;DHT22;6792;57.698;11.946;2023-08-06T00:22:42;22.20;49.90
13440;DHT22;6792;57.698;11.946;2023-08-06T00:25:11;22.20;50.00
13440;DHT22;6792;57.698;11.946;2023-08-06T00:27:41;22.20;50.00
13440;DHT22;6792;57.698;11.946;2023-08-06T00:30:11;22.10;50.00
13440;DHT22;6792;57.698;11.946;2023-08-06T00:32:40;22.10;49.50
13440;DHT22;6792;57.698;11.946;2023-08-06T00:35:10;22.10;50.10
13440;DHT22;6792;57.698;11.946;2023-08-06T00:37:41;22.10;50.10
13440;DHT22;6792;57.698;11.946;2023-08-06T00:40:10;22.10;50.10
13440;DHT22;6792;57.698;11.946;2023-08-06T00:42:39;22.10;50.10
13440;DHT22;6792;57.698;11.946;2023-08-06T00:45:12;22.10;50.10
13440;DHT22;6792;57.698;11.946;2023-08-06T00:47:42;22.10;50.10
13440;DHT22;6792;57.698;11.946;2023-08-06T00:50:11;22.10;50.20
13440;DHT22;6792;57.698;11.946;2023-08-06T00:52:41;22.20;50.20
13440;DHT22;6792;57.698;11.946;2023-08-06T00:55:11;22.20;50.30
13440;DHT22;6792;57.698;11.946;2023-08-06T00:57:40;22.20;50.20
13440;DHT22;6792;57.698;11.946;2023-08-06T01:00:12;22.20;50.20
13440;DHT22;6792;57.698;11.946;2023-08-06T01:02:41;22.20;50.10
13440;DHT22;6792;57.698;11.946;2023-08-06T01:05:10;22.20;50.20
13440;DHT22;6792;57.698;11.946;2023-08-06T01:10:33;22.20;50.20
13440;DHT22;6792;57.698;11.946;2023-08-06T01:13:08;22.10;49.60
13440;DHT22;6792;57.698;11.946;2023-08-06T01:15:40;22.10;50.20
13440;DHT22;6792;57.698;11.946;2023-08-06T01:18:10;22.20;50.20
13440;DHT22;6792;57.698;11.946;2023-08-06T01:20:39;22.10;50.20
13440;DHT22;6792;57.698;11.946;2023-08-06T01:23:09;22.10;50.30
13440;DHT22;6792;57.698;11.946;2023-08-06T01:25:42;22.10;50.30
13440;DHT22;6792;57.698;11.946;2023-08-06T01:28:15;22.10;50.30
13440;DHT22;6792;57.698;11.946;2023-08-06T01:30:43;22.00;50.40
13440;DHT22;6792;57.698;11.946;2023-08-06T01:33:16;22.00;50.40
13440;DHT22;6792;57.698;11.946;2023-08-06T01:35:45;21.90;50.40
13440;DHT22;6792;57.698;11.946;2023-08-06T01:38:15;21.90;51.10
13440;DHT22;6792;57.698;11.946;2023-08-06T01:40:44;21.90;50.60
13440;DHT22;6792;57.698;11.946;2023-08-06T01:43:14;21.90;50.60
13440;DHT22;6792;57.698;11.946;2023-08-06T01:45:43;21.90;50.60
13440;DHT22;6792;57.698;11.946;2023-08-06T01:48:12;21.90;50.60
13440;DHT22;6792;57.698;11.946;2023-08-06T01:50:41;21.90;50.60
13440;DHT22;6792;57.698;11.946;2023-08-06T01:53:10;21.90;50.60
13440;DHT22;6792;57.698;11.946;2023-08-06T01:55:40;21.90;50.10
13440;DHT22;6792;57.698;11.946;2023-08-06T01:58:09;21.90;50.60
13440;DHT22;6792;57.698;11.946;2023-08-06T02:00:38;21.90;50.50
13440;DHT22;6792;57.698;11.946;2023-08-06T02:03:07;21.90;50.50
13440;DHT22;6792;57.698;11.946;2023-08-06T02:05:36;21.90;50.60
13440;DHT22;6792;57.698;11.946;2023-08-06T02:08:06;21.90;50.60
13440;DHT22;6792;57.698;11.946;2023-08-06T02:10:35;21.80;50.60
13440;DHT22;6792;57.698;11.946;2023-08-06T02:13:04;21.80;50.60
13440;DHT22;6792;57.698;11.946;2023-08-06T02:15:34;21.80;50.60
13440;DHT22;6792;57.698;11.946;2023-08-06T02:18:03;21.70;50.10
13440;DHT22;6792;57.698;11.946;2023-08-06T02:20:32;21.70;50.70
13440;DHT22;6792;57.698;11.946;2023-08-06T02:23:02;21.70;50.70
13440;DHT22;6792;57.698;11.946;2023-08-06T02:25:31;21.70;50.80
13440;DHT22;6792;57.698;11.946;2023-08-06T02:28:00;21.70;50.80
13440;DHT22;6792;57.698;11.946;2023-08-06T02:30:29;21.70;50.90
13440;DHT22;6792;57.698;11.946;2023-08-06T02:32:59;21.70;50.80
13440;DHT22;6792;57.698;11.946;2023-08-06T02:35:28;21.70;50.90
13440;DHT22;6792;57.698;11.946;2023-08-06T02:37:57;21.70;50.30
13440;DHT22;6792;57.698;11.946;2023-08-06T02:40:26;21.70;50.80
13440;DHT22;6792;57.698;11.946;2023-08-06T02:42:55;21.70;50.80
13440;DHT22;6792;57.698;11.946;2023-08-06T02:45:25;21.70;50.70
13440;DHT22;6792;57.698;11.946;2023-08-06T02:47:54;21.70;50.80
13440;DHT22;6792;57.698;11.946;2023-08-06T02:50:23;21.70;50.80
13440;DHT22;6792;57.698;11.946;2023-08-06T02:52:52;21.70;50.80
13440;DHT22;6792;57.698;11.946;2023-08-06T02:55:21;21.70;50.80
13440;DHT22;6792;57.698;11.946;2023-08-06T02:57:51;21.70;51.20
13440;DHT22;6792;57.698;11.946;2023-08-06T03:00:20;21.70;50.90
13440;DHT22;6792;57.698;11.946;2023-08-06T03:02:49;21.70;50.90
13440;DHT22;6792;57.698;11.946;2023-08-06T03:05:18;21.60;50.80
13440;DHT22;6792;57.698;11.946;2023-08-06T03:07:47;21.60;50.90
13440;DHT22;6792;57.698;11.946;2023-08-06T03:10:17;21.60;50.80
13440;DHT22;6792;57.698;11.946;2023-08-06T03:12:47;21.60;51.40
13440;DHT22;6792;57.698;11.946;2023-08-06T03:15:17;21.60;50.80
13440;DHT22;6792;57.698;11.946;2023-08-06T03:17:47;21.60;50.80
13440;DHT22;6792;57.698;11.946;2023-08-06T03:20:16;21.60;50.90
13440;DHT22;6792;57.698;11.946;2023-08-06T03:22:46;21.60;50.80
13440;DHT22;6792;57.698;11.946;2023-08-06T03:25:16;21.60;50.80
13440;DHT22;6792;57.698;11.946;2023-08-06T03:27:45;21.50;50.80
13440;DHT22;6792;57.698;11.946;2023-08-06T03:30:15;21.50;50.80
13440;DHT22;6792;57.698;11.946;2023-08-06T03:32:44;21.50;50.90
13440;DHT22;6792;57.698;11.946;2023-08-06T03:35:15;21.50;51.40
13440;DHT22;6792;57.698;11.946;2023-08-06T03:37:44;21.50;50.90
13440;DHT22;6792;57.698;11.946;2023-08-06T03:40:13;21.50;51.60
13440;DHT22;6792;57.698;11.946;2023-08-06T03:42:43;21.50;50.90
13440;DHT22;6792;57.698;11.946;2023-08-06T03:45:12;21.50;50.90
13440;DHT22;6792;57.698;11.946;2023-08-06T03:47:41;21.50;50.90
13440;DHT22;6792;57.698;11.946;2023-08-06T03:50:11;21.40;50.90
13440;DHT22;6792;57.698;11.946;2023-08-06T03:52:40;21.40;51.00
13440;DHT22;6792;57.698;11.946;2023-08-06T03:55:10;21.50;51.00
13440;DHT22;6792;57.698;11.946;2023-08-06T03:57:39;21.50;51.00
13440;DHT22;6792;57.698;11.946;2023-08-06T04:00:11;21.40;51.00
13440;DHT22;6792;57.698;11.946;2023-08-06T04:02:40;21.50;51.00
13440;DHT22;6792;57.698;11.946;2023-08-06T04:05:12;21.40;50.90
13440;DHT22;6792;57.698;11.946;2023-08-06T04:07:42;21.40;51.00
13440;DHT22;6792;57.698;11.946;2023-08-06T04:10:11;21.40;51.00
13440;DHT22;6792;57.698;11.946;2023-08-06T04:12:40;21.40;51.00
13440;DHT22;6792;57.698;11.946;2023-08-06T04:15:10;21.40;51.10
13440;DHT22;6792;57.698;11.946;2023-08-06T04:17:40;21.40;51.10
13440;DHT22;6792;57.698;11.946;2023-08-06T04:20:10;21.40;51.10
13440;DHT22;6792;57.698;11.946;2023-08-06T04:22:39;21.40;51.00
13440;DHT22;6792;57.698;11.946;2023-08-06T04:25:10;21.40;51.00
13440;DHT22;6792;57.698;11.946;2023-08-06T04:27:39;21.50;51.00
13440;DHT22;6792;57.698;11.946;2023-08-06T04:30:11;21.40;50.50
13440;DHT22;6792;57.698;11.946;2023-08-06T04:32:41;21.40;51.00
13440;DHT22;6792;57.698;11.946;2023-08-06T04:35:10;21.40;51.00
13440;DHT22;6792;57.698;11.946;2023-08-06T04:37:39;21.50;51.60
13440;DHT22;6792;57.698;11.946;2023-08-06T04:40:10;21.50;51.00
13440;DHT22;6792;57.698;11.946;2023-08-06T04:42:41;21.50;51.00
13440;DHT22;6792;57.698;11.946;2023-08-06T04:45:12;21.50;51.00
13440;DHT22;6792;57.698;11.946;2023-08-06T04:47:42;21.50;50.90
13440;DHT22;6792;57.698;11.946;2023-08-06T04:50:11;21.50;50.90
13440;DHT22;6792;57.698;11.946;2023-08-06T04:52:40;21.50;50.90
13440;DHT22;6792;57.698;11.946;2023-08-06T04:55:10;21.60;50.90
13440;DHT22;6792;57.698;11.946;2023-08-06T04:57:39;21.60;50.90
13440;DHT22;6792;57.698;11.946;2023-08-06T05:00:10;21.60;50.90
13440;DHT22;6792;57.698;11.946;2023-08-06T05:02:39;21.60;50.90
13440;DHT22;6792;57.698;11.946;2023-08-06T05:05:09;21.60;51.00
13440;DHT22;6792;57.698;11.946;2023-08-06T05:07:38;21.60;50.90
13440;DHT22;6792;57.698;11.946;2023-08-06T05:10:09;21.60;50.90
13440;DHT22;6792;57.698;11.946;2023-08-06T05:12:38;21.70;51.00
13440;DHT22;6792;57.698;11.946;2023-08-06T05:15:11;21.70;51.00
13440;DHT22;6792;57.698;11.946;2023-08-06T05:17:41;21.70;51.10
13440;DHT22;6792;57.698;11.946;2023-08-06T05:20:12;21.70;51.00
13440;DHT22;6792;57.698;11.946;2023-08-06T05:22:41;21.70;51.00
13440;DHT22;6792;57.698;11.946;2023-08-06T05:25:13;21.80;50.40
13440;DHT22;6792;57.698;11.946;2023-08-06T05:27:43;21.80;50.40
13440;DHT22;6792;57.698;11.946;2023-08-06T05:30:12;21.80;51.00
13440;DHT22;6792;57.698;11.946;2023-08-06T05:32:42;21.80;51.00
13440;DHT22;6792;57.698;11.946;2023-08-06T05:35:11;21.90;50.90
13440;DHT22;6792;57.698;11.946;2023-08-06T05:37:42;21.90;50.90
13440;DHT22;6792;57.698;11.946;2023-08-06T05:40:11;21.90;50.30
13440;DHT22;6792;57.698;11.946;2023-08-06T05:42:41;22.00;50.90
13440;DHT22;6792;57.698;11.946;2023-08-06T05:45:15;22.00;50.80
13440;DHT22;6792;57.698;11.946;2023-08-06T05:47:44;22.00;50.30
13440;DHT22;6792;57.698;11.946;2023-08-06T05:50:14;22.00;50.80
13440;DHT22;6792;57.698;11.946;2023-08-06T05:52:43;22.10;50.80
13440;DHT22;6792;57.698;11.946;2023-08-06T05:55:13;22.10;50.70
13440;DHT22;6792;57.698;11.946;2023-08-06T05:57:42;22.10;50.60
13440;DHT22;6792;57.698;11.946;2023-08-06T06:00:13;22.20;51.00
13440;DHT22;6792;57.698;11.946;2023-08-06T06:02:42;22.20;50.60
13440;DHT22;6792;57.698;11.946;2023-08-06T06:05:11;22.20;50.70
13440;DHT22;6792;57.698;11.946;2023-08-06T06:07:41;22.30;50.60
13440;DHT22;6792;57.698;11.946;2023-08-06T06:10:11;22.30;50.60
13440;DHT22;6792;57.698;11.946;2023-08-06T06:12:40;22.40;50.50
13440;DHT22;6792;57.698;11.946;2023-08-06T06:15:15;22.40;50.40
13440;DHT22;6792;57.698;11.946;2023-08-06T06:17:44;22.40;49.80
13440;DHT22;6792;57.698;11.946;2023-08-06T06:20:14;22.40;50.30
13440;DHT22;6792;57.698;11.946;2023-08-06T06:22:43;22.50;50.30
13440;DHT22;6792;57.698;11.946;2023-08-06T06:25:12;22.50;50.30
13440;DHT22;6792;57.698;11.946;2023-08-06T06:27:42;22.50;50.20
13440;DHT22;6792;57.698;11.946;2023-08-06T06:30:12;22.60;50.10
13440;DHT22;6792;57.698;11.946;2023-08-06T06:32:42;22.60;50.10
13440;DHT22;6792;57.698;11.946;2023-08-06T06:35:12;22.70;50.10
13440;DHT22;6792;57.698;11.946;2023-08-06T06:37:41;22.70;50.00
13440;DHT22;6792;57.698;11.946;2023-08-06T06:40:12;22.70;49.90
13440;DHT22;6792;57.698;11.946;2023-08-06T06:45:21;22.80;49.40
13440;DHT22;6792;57.698;11.946;2023-08-06T06:47:50;22.90;49.90
13440;DHT22;6792;57.698;11.946;2023-08-06T06:50:20;22.90;49.30
13440;DHT22;6792;57.698;11.946;2023-08-06T06:52:49;22.90;49.80
13440;DHT22;6792;57.698;11.946;2023-08-06T06:55:18;23.00;49.80
13440;DHT22;6792;57.698;11.946;2023-08-06T06:57:47;23.00;49.10
13440;DHT22;6792;57.698;11.946;2023-08-06T07:00:17;23.00;49.50
13440;DHT22;6792;57.698;11.946;2023-08-06T07:02:46;23.00;49.50
13440;DHT22;6792;57.698;11.946;2023-08-06T07:05:15;23.10;49.50
13440;DHT22;6792;57.698;11.946;2023-08-06T07:07:45;23.10;49.40
13440;DHT22;6792;57.698;11.946;2023-08-06T07:10:14;23.10;49.40
13440;DHT22;6792;57.698;11.946;2023-08-06T07:12:43;23.20;49.40
13440;DHT22;6792;57.698;11.946;2023-08-06T07:15:13;23.20;49.30
13440;DHT22;6792;57.698;11.946;2023-08-06T07:17:42;23.30;49.20
13440;DHT22;6792;57.698;11.946;2023-08-06T07:20:12;23.30;49.10
13440;DHT22;6792;57.698;11.946;2023-08-06T07:22:41;23.40;49.20
13440;DHT22;6792;57.698;11.946;2023-08-06T07:25:14;23.40;49.10
13440;DHT22;6792;57.698;11.946;2023-08-06T07:27:43;23.50;49.10
13440;DHT22;6792;57.698;11.946;2023-08-06T07:30:12;23.60;49.00
13440;DHT22;6792;57.698;11.946;2023-08-06T07:32:42;23.60;48.80
13440;DHT22;6792;57.698;11.946;2023-08-06T07:35:11;23.70;48.80
13440;DHT22;6792;57.698;11.946;2023-08-06T07:37:42;23.70;48.70
13440;DHT22;6792;57.698;11.946;2023-08-06T07:40:12;23.70;48.60
13440;DHT22;6792;57.698;11.946;2023-08-06T07:42:42;23.80;48.60
13440;DHT22;6792;57.698;11.946;2023-08-06T07:45:12;23.90;48.50
13440;DHT22;6792;57.698;11.946;2023-08-06T07:47:41;23.90;48.40
13440;DHT22;6792;57.698;11.946;2023-08-06T07:50:11;24.00;48.30
13440;DHT22;6792;57.698;11.946;2023-08-06T07:52:41;24.10;48.40
13440;DHT22;6792;57.698;11.946;2023-08-06T07:55:15;24.10;48.20
13440;DHT22;6792;57.698;11.946;2023-08-06T07:57:44;24.20;48.10
13440;DHT22;6792;57.698;11.946;2023-08-06T08:00:14;24.20;48.10
13440;DHT22;6792;57.698;11.946;2023-08-06T08:02:43;24.40;48.00
13440;DHT22;6792;57.698;11.946;2023-08-06T08:05:14;24.40;47.90
13440;DHT22;6792;57.698;11.946;2023-08-06T08:07:43;24.50;47.80
13440;DHT22;6792;57.698;11.946;2023-08-06T08:10:13;24.60;47.70
13440;DHT22;6792;57.698;11.946;2023-08-06T08:12:42;24.70;47.50
13440;DHT22;6792;57.698;11.946;2023-08-06T08:15:11;24.70;47.30
13440;DHT22;6792;57.698;11.946;2023-08-06T08:17:41;24.80;47.20
13440;DHT22;6792;57.698;11.946;2023-08-06T08:20:11;24.90;47.10
13440;DHT22;6792;57.698;11.946;2023-08-06T08:22:40;25.00;47.00
13440;DHT22;6792;57.698;11.946;2023-08-06T08:25:10;25.00;46.40
13440;DHT22;6792;57.698;11.946;2023-08-06T08:27:39;25.10;46.90
13440;DHT22;6792;57.698;11.946;2023-08-06T08:30:10;25.20;46.80
13440;DHT22;6792;57.698;11.946;2023-08-06T08:32:39;25.20;46.60
13440;DHT22;6792;57.698;11.946;2023-08-06T08:35:10;25.30;46.00
13440;DHT22;6792;57.698;11.946;2023-08-06T08:37:41;25.40;46.50
13440;DHT22;6792;57.698;11.946;2023-08-06T08:40:11;25.40;46.40
13440;DHT22;6792;57.698;11.946;2023-08-06T08:42:40;25.50;45.80
13440;DHT22;6792;57.698;11.946;2023-08-06T08:45:13;25.50;46.20
13440;DHT22;6792;57.698;11.946;2023-08-06T08:47:43;25.60;46.00
13440;DHT22;6792;57.698;11.946;2023-08-06T08:50:14;25.60;46.00
13440;DHT22;6792;57.698;11.946;2023-08-06T08:52:44;25.70;45.90
13440;DHT22;6792;57.698;11.946;2023-08-06T08:55:16;25.70;45.80
13440;DHT22;6792;57.698;11.946;2023-08-06T08:57:45;25.80;45.60
13440;DHT22;6792;57.698;11.946;2023-08-06T09:00:15;25.80;45.40
13440;DHT22;6792;57.698;11.946;2023-08-06T09:02:45;25.80;44.70
13440;DHT22;6792;57.698;11.946;2023-08-06T09:05:16;25.80;45.20
13440;DHT22;6792;57.698;11.946;2023-08-06T09:07:49;25.90;45.10
13440;DHT22;6792;57.698;11.946;2023-08-06T09:10:19;25.90;45.10
13440;DHT22;6792;57.698;11.946;2023-08-06T09:12:52;25.90;45.00
13440;DHT22;6792;57.698;11.946;2023-08-06T09:15:24;26.00;44.90
13440;DHT22;6792;57.698;11.946;2023-08-06T09:17:54;26.00;44.80
13440;DHT22;6792;57.698;11.946;2023-08-06T09:20:23;26.10;44.60
13440;DHT22;6792;57.698;11.946;2023-08-06T09:22:54;26.10;44.30
13440;DHT22;6792;57.698;11.946;2023-08-06T09:28:11;26.10;43.30
13440;DHT22;6792;57.698;11.946;2023-08-06T09:30:40;26.20;43.80
13440;DHT22;6792;57.698;11.946;2023-08-06T09:33:10;26.20;43.90
13440;DHT22;6792;57.698;11.946;2023-08-06T09:35:39;26.20;43.70
13440;DHT22;6792;57.698;11.946;2023-08-06T09:38:09;26.20;43.60
13440;DHT22;6792;57.698;11.946;2023-08-06T09:40:39;26.20;43.50
13440;DHT22;6792;57.698;11.946;2023-08-06T09:43:09;26.20;43.30
13440;DHT22;6792;57.698;11.946;2023-08-06T09:45:39;26.20;43.10
13440;DHT22;6792;57.698;11.946;2023-08-06T09:48:09;26.30;43.10
13440;DHT22;6792;57.698;11.946;2023-08-06T09:50:39;26.30;43.00
13440;DHT22;6792;57.698;11.946;2023-08-06T09:53:09;26.30;42.80
13440;DHT22;6792;57.698;11.946;2023-08-06T09:55:39;26.40;42.70
13440;DHT22;6792;57.698;11.946;2023-08-06T09:58:08;26.40;42.60
13440;DHT22;6792;57.698;11.946;2023-08-06T10:00:38;26.40;42.30
13440;DHT22;6792;57.698;11.946;2023-08-06T10:03:07;26.50;42.20
13440;DHT22;6792;57.698;11.946;2023-08-06T10:05:39;26.50;42.10
13440;DHT22;6792;57.698;11.946;2023-08-06T10:08:09;26.50;42.10
13440;DHT22;6792;57.698;11.946;2023-08-06T10:10:38;26.60;42.10
13440;DHT22;6792;57.698;11.946;2023-08-06T10:13:08;26.60;42.00
13440;DHT22;6792;57.698;11.946;2023-08-06T10:15:38;26.60;41.90
13440;DHT22;6792;57.698;11.946;2023-08-06T10:18:09;26.60;41.90
13440;DHT22;6792;57.698;11.946;2023-08-06T10:20:39;26.60;42.00
13440;DHT22;6792;57.698;11.946;2023-08-06T10:23:08;26.60;42.00
13440;DHT22;6792;57.698;11.946;2023-08-06T10:25:40;26.70;42.10
13440;DHT22;6792;57.698;11.946;2023-08-06T10:28:10;26.70;42.00
13440;DHT22;6792;57.698;11.946;2023-08-06T10:30:45;26.70;42.00
13440;DHT22;6792;57.698;11.946;2023-08-06T10:33:15;26.60;41.30
13440;DHT22;6792;57.698;11.946;2023-08-06T10:35:46;26.60;41.90
13440;DHT22;6792;57.698;11.946;2023-08-06T10:38:18;26.60;41.80
13440;DHT22;6792;57.698;11.946;2023-08-06T10:40:52;26.70;41.80
13440;DHT22;6792;57.698;11.946;2023-08-06T10:43:28;26.70;41.10
13440;DHT22;6792;57.698;11.946;2023-08-06T10:45:58;26.70;41.70
13440;DHT22;6792;57.698;11.946;2023-08-06T10:48:33;26.70;41.80
13440;DHT22;6792;57.698;11.946;2023-08-06T10:51:05;26.70;41.70
13440;DHT22;6792;57.698;11.946;2023-08-06T10:53:34;26.70;41.70
13440;DHT22;6792;57.698;11.946;2023-08-06T10:56:12;26.70;41.60
13440;DHT22;6792;57.698;11.946;2023-08-06T10:58:43;26.70;40.90
13440;DHT22;6792;57.698;11.946;2023-08-06T11:01:12;26.70;41.40
13440;DHT22;6792;57.698;11.946;2023-08-06T11:03:44;26.70;40.60
13440;DHT22;6792;57.698;11.946;2023-08-06T11:06:17;26.70;41.00
13440;DHT22;6792;57.698;11.946;2023-08-06T11:08:50;26.70;40.80
13440;DHT22;6792;57.698;11.946;2023-08-06T11:11:22;26.70;40.70
13440;DHT22;6792;57.698;11.946;2023-08-06T11:13:52;26.70;40.60
13440;DHT22;6792;57.698;11.946;2023-08-06T11:16:23;26.70;40.40
13440;DHT22;6792;57.698;11.946;2023-08-06T11:18:52;26.70;40.30
13440;DHT22;6792;57.698;11.946;2023-08-06T11:21:24;26.70;40.20
13440;DHT22;6792;57.698;11.946;2023-08-06T11:23:55;26.70;40.20
13440;DHT22;6792;57.698;11.946;2023-08-06T11:26:24;26.70;40.10
13440;DHT22;6792;57.698;11.946;2023-08-06T11:28:55;26.70;40.00
13440;DHT22;6792;57.698;11.946;2023-08-06T11:33:53;26.60;39.30
13440;DHT22;6792;57.698;11.946;2023-08-06T11:36:30;26.60;39.30
13440;DHT22;6792;57.698;11.946;2023-08-06T11:39:00;26.70;39.90
13440;DHT22;6792;57.698;11.946;2023-08-06T11:41:30;26.60;39.80
13440;DHT22;6792;57.698;11.946;2023-08-06T11:44:00;26.60;39.90
13440;DHT22;6792;57.698;11.946;2023-08-06T11:46:29;26.60;39.90
13440;DHT22;6792;57.698;11.946;2023-08-06T11:49:00;26.60;39.90
13440;DHT22;6792;57.698;11.946;2023-08-06T11:51:29;26.60;39.90
13440;DHT22;6792;57.698;11.946;2023-08-06T11:53:59;26.60;40.00
13440;DHT22;6792;57.698;11.946;2023-08-06T11:56:28;26.60;40.00
13440;DHT22;6792;57.698;11.946;2023-08-06T11:58:58;26.70;40.00
13440;DHT22;6792;57.698;11.946;2023-08-06T12:01:27;26.70;40.00
13440;DHT22;6792;57.698;11.946;2023-08-06T12:04:00;26.70;39.90
13440;DHT22;6792;57.698;11.946;2023-08-06T12:06:29;26.70;39.30
13440;DHT22;6792;57.698;11.946;2023-08-06T12:08:59;26.80;39.90
13440;DHT22;6792;57.698;11.946;2023-08-06T12:11:28;26.80;39.80
13440;DHT22;6792;57.698;11.946;2023-08-06T12:13:57;26.80;39.80
13440;DHT22;6792;57.698;11.946;2023-08-06T12:16:29;26.80;39.70
13440;DHT22;6792;57.698;11.946;2023-08-06T12:18:58;26.80;39.80
13440;DHT22;6792;57.698;11.946;2023-08-06T12:21:27;26.80;39.80
13440;DHT22;6792;57.698;11.946;2023-08-06T12:23:56;26.80;39.30
13440;DHT22;6792;57.698;11.946;2023-08-06T12:26:26;26.90;39.90
13440;DHT22;6792;57.698;11.946;2023-08-06T12:28:55;26.90;40.50
13440;DHT22;6792;57.698;11.946;2023-08-06T12:31:25;26.80;39.30
13440;DHT22;6792;57.698;11.946;2023-08-06T12:33:54;26.90;40.00
13440;DHT22;6792;57.698;11.946;2023-08-06T12:36:23;26.90;40.00
13440;DHT22;6792;57.698;11.946;2023-08-06T12:38:52;26.90;40.00
13440;DHT22;6792;57.698;11.946;2023-08-06T12:41:22;26.90;39.90
13440;DHT22;6792;57.698;11.946;2023-08-06T12:43:51;26.90;39.90
13440;DHT22;6792;57.698;11.946;2023-08-06T12:46:20;27.00;40.00
13440;DHT22;6792;57.698;11.946;2023-08-06T12:48:50;26.90;39.90
13440;DHT22;6792;57.698;11.946;2023-08-06T12:51:19;26.90;39.90
13440;DHT22;6792;57.698;11.946;2023-08-06T12:53:48;26.90;40.00
13440;DHT22;6792;57.698;11.946;2023-08-06T12:56:19;26.90;40.00
13440;DHT22;6792;57.698;11.946;2023-08-06T12:58:48;26.90;40.10
13440;DHT22;6792;57.698;11.946;2023-08-06T13:01:17;26.80;40.20
13440;DHT22;6792;57.698;11.946;2023-08-06T13:03:46;26.90;40.50
13440;DHT22;6792;57.698;11.946;2023-08-06T13:06:16;26.90;40.50
13440;DHT22;6792;57.698;11.946;2023-08-06T13:08:45;26.90;40.40
13440;DHT22;6792;57.698;11.946;2023-08-06T13:11:14;26.90;40.30
13440;DHT22;6792;57.698;11.946;2023-08-06T13:13:43;27.00;40.30
13440;DHT22;6792;57.698;11.946;2023-08-06T13:16:12;27.00;40.30
13440;DHT22;6792;57.698;11.946;2023-08-06T13:18:42;27.10;40.30
13440;DHT22;6792;57.698;11.946;2023-08-06T13:21:11;27.10;40.30
13440;DHT22;6792;57.698;11.946;2023-08-06T13:23:40;27.10;40.30
13440;DHT22;6792;57.698;11.946;2023-08-06T13:26:10;27.10;40.30
13440;DHT22;6792;57.698;11.946;2023-08-06T13:28:39;27.10;40.20
13440;DHT22;6792;57.698;11.946;2023-08-06T13:31:08;27.10;40.20
13440;DHT22;6792;57.698;11.946;2023-08-06T13:33:37;27.10;40.20
13440;DHT22;6792;57.698;11.946;2023-08-06T13:36:06;27.10;40.20
13440;DHT22;6792;57.698;11.946;2023-08-06T13:38:36;27.10;40.30
13440;DHT22;6792;57.698;11.946;2023-08-06T13:41:05;27.10;40.30
13440;DHT22;6792;57.698;11.946;2023-08-06T13:43:34;27.10;40.40
13440;DHT22;6792;57.698;11.946;2023-08-06T13:46:04;27.10;40.40
13440;DHT22;6792;57.698;11.946;2023-08-06T13:48:33;27.10;40.40
13440;DHT22;6792;57.698;11.946;2023-08-06T13:51:02;27.10;40.40
13440;DHT22;6792;57.698;11.946;2023-08-06T13:53:31;27.10;40.30
13440;DHT22;6792;57.698;11.946;2023-08-06T13:56:01;27.10;40.30
13440;DHT22;6792;57.698;11.946;2023-08-06T13:58:30;27.10;40.40
13440;DHT22;6792;57.698;11.946;2023-08-06T14:01:00;27.10;40.40
13440;DHT22;6792;57.698;11.946;2023-08-06T14:03:29;27.00;40.40
13440;DHT22;6792;57.698;11.946;2023-08-06T14:05:58;27.00;40.50
13440;DHT22;6792;57.698;11.946;2023-08-06T14:08:27;26.90;40.50
13440;DHT22;6792;57.698;11.946;2023-08-06T14:10:56;26.80;40.60
13440;DHT22;6792;57.698;11.946;2023-08-06T14:13:26;26.80;40.70
13440;DHT22;6792;57.698;11.946;2023-08-06T14:15:55;26.80;40.70
13440;DHT22;6792;57.698;11.946;2023-08-06T14:18:24;26.80;40.80
13440;DHT22;6792;57.698;11.946;2023-08-06T14:20:54;26.70;40.70
13440;DHT22;6792;57.698;11.946;2023-08-06T14:23:23;26.70;40.70
13440;DHT22;6792;57.698;11.946;2023-08-06T14:25:52;26.60;40.70
13440;DHT22;6792;57.698;11.946;2023-08-06T14:28:21;26.60;40.80
13440;DHT22;6792;57.698;11.946;2023-08-06T14:30:50;26.50;40.80
13440;DHT22;6792;57.698;11.946;2023-08-06T14:33:20;26.50;40.80
13440;DHT22;6792;57.698;11.946;2023-08-06T14:35:49;26.50;40.80
13440;DHT22;6792;57.698;11.946;2023-08-06T14:38:18;26.40;40.70
13440;DHT22;6792;57.698;11.946;2023-08-06T14:40:48;26.30;40.80
13440;DHT22;6792;57.698;11.946;2023-08-06T14:43:17;26.30;40.80
13440;DHT22;6792;57.698;11.946;2023-08-06T14:45:47;26.20;40.90
13440;DHT22;6792;57.698;11.946;2023-08-06T14:48:16;26.20;40.90
13440;DHT22;6792;57.698;11.946;2023-08-06T14:50:45;26.20;40.90
13440;DHT22;6792;57.698;11.946;2023-08-06T14:55:43;26.20;40.40
13440;DHT22;6792;57.698;11.946;2023-08-06T14:58:12;26.20;40.90
13440;DHT22;6792;57.698;11.946;2023-08-06T15:00:41;26.10;40.90
13440;DHT22;6792;57.698;11.946;2023-08-06T15:03:10;26.10;40.90
13440;DHT22;6792;57.698;11.946;2023-08-06T15:05:40;26.10;41.00
13440;DHT22;6792;57.698;11.946;2023-08-06T15:08:10;26.00;41.00
13440;DHT22;6792;57.698;11.946;2023-08-06T15:10:40;26.00;41.10
13440;DHT22;6792;57.698;11.946;2023-08-06T15:13:09;25.90;41.20
13440;DHT22;6792;57.698;11.946;2023-08-06T15:15:38;25.80;41.20
13440;DHT22;6792;57.698;11.946;2023-08-06T15:18:09;25.80;41.20
13440;DHT22;6792;57.698;11.946;2023-08-06T15:20:39;25.80;41.30
13440;DHT22;6792;57.698;11.946;2023-08-06T15:23:08;25.80;41.40
13440;DHT22;6792;57.698;11.946;2023-08-06T15:25:37;25.70;41.30
13440;DHT22;6792;57.698;11.946;2023-08-06T15:28:06;25.70;41.40
13440;DHT22;6792;57.698;11.946;2023-08-06T15:30:36;25.60;41.30
13440;DHT22;6792;57.698;11.946;2023-08-06T15:33:05;25.60;41.20
13440;DHT22;6792;57.698;11.946;2023-08-06T15:35:34;25.60;41.20
13440;DHT22;6792;57.698;11.946;2023-08-06T15:38:03;25.50;41.20
13440;DHT22;6792;57.698;11.946;2023-08-06T15:40:33;25.50;41.20
13440;DHT22;6792;57.698;11.946;2023-08-06T15:43:03;25.40;41.10
13440;DHT22;6792;57.698;11.946;2023-08-06T15:45:33;25.40;41.10
13440;DHT22;6792;57.698;11.946;2023-08-06T15:48:03;25.30;41.20
13440;DHT22;6792;57.698;11.946;2023-08-06T15:50:32;25.30;41.20
13440;DHT22;6792;57.698;11.946;2023-08-06T15:53:01;25.20;41.20
13440;DHT22;6792;57.698;11.946;2023-08-06T15:55:30;25.20;41.20
13440;DHT22;6792;57.698;11.946;2023-08-06T15:58:03;25.10;41.10